Rejestracja

Wszystkie dane podawane są w czasie UTC za wyjątkiem miejsc gdzie jest jednoznacznie podane, że jest inaczej. Dane podawane w serwisie mają charakter informacyjny!!!
Informacje w sprawie dostępu do serwisu pod numerem tel. +48 261-828-138
Informacja dla żołnierzy i pracowników wojska: Prosimy o niezwłoczną zmianę adresu e-mail w profilu użytkownika na pocztę w domenie @ron.mil.pl

Aktualna Pogoda
 
Pogoda w Polsce
9°C Szczecin 9°C Suwałki 9°C Warszawa 9°C Poznan
12°C Opole 10°C Kraków 9°C Rzeszów
Więcej miast w Polsce

Pogoda w Europie
11°C Berlin 5°C Paryz 5°C Bruksela 2°C Oslo
9°C Praga 13°C Zagrzeb
Więcej miast w Europie

Metary wojskowe test
METAR EPBC 180900Z 13009KT 8000 BKN011 10/08 Q1013=
METAR EPCE 180930Z 14012KT 8000 BKN008 09/07 Q1010 RMK 088 089 7/7=
METAR EPDA 180930Z 12011KT 9000 FEW093 BKN200 09/07 Q1008 RMK 092 086 6/2=
METAR EPDE 180930Z 11012KT 9000 SCT012 BKN200 11/08 Q1014 RMK 108 084 7/4=
METAR EPIR 180930Z 10012KT 4000 BR BKN008 BKN200 08/06 Q1010 RMK 084 087 7/5=
METAR EPKS 180930Z 10011KT 9999 BKN086 08/08 Q1008 RMK 084 100 7/7=
METAR EPLK 180930Z 11011KT 9999 NSC 11/07 Q1010 RMK 111 077 6/2=
METAR EPLY 180930Z 11004KT 9999 NSC 12/08 Q1010 RMK 118 080 6/6=
METAR EPMB 180930Z 17010KT 9999 BKN014 10/09 Q1012 RMK 103 090 7/7=
METAR EPMI 180930Z 12014KT 6000 FEW007 BKN090 08/07 Q1008 RMK 084 089 5/2=
METAR EPMM 180900Z 14013KT 110V170 9999 BKN008 09/07 Q1014 RMK 093 087 7/7=
METAR EPNA 180900Z 12014KT 4000 BR BKN006 BKN010 08/07 Q1009 RMK 081 091 7/6=
METAR EPOK 180930Z 15015KT 9999 OVC011 10/07 Q1011 RMK 096 086 8/8=
METAR EPPR 180930Z 12004KT 6000 OVC012 10/07 Q1012 RMK 096 086 8/8=
METAR EPPW 180900Z 11012KT 9999 NSC 08/07 Q1009 RMK 081 091 7/7=
METAR EPSN 180900Z 12011KT 6000 SCT200 09/07 Q1008 RMK 090 086 4/4=
METAR EPTM 180930Z 12006KT 9999 NSC 11/08 Q1012 RMK 107 084 6/6=


 

Prawa autorskie©2007 SSH SZ RP. Wszelkie prawa zastrzeżone.